sensor_id;sensor_type;location;lat;lon;timestamp;temperature;humidity
3705;DHT22;1868;48.918;9.438;2023-04-24T00:01:06;11.90;97.40
3705;DHT22;1868;48.918;9.438;2023-04-24T00:03:41;11.90;97.40
3705;DHT22;1868;48.918;9.438;2023-04-24T00:06:11;11.90;97.40
3705;DHT22;1868;48.918;9.438;2023-04-24T00:08:45;11.90;97.40
3705;DHT22;1868;48.918;9.438;2023-04-24T00:11:14;11.90;97.40
3705;DHT22;1868;48.918;9.438;2023-04-24T00:13:44;11.80;97.40
3705;DHT22;1868;48.918;9.438;2023-04-24T00:16:15;11.80;97.40
3705;DHT22;1868;48.918;9.438;2023-04-24T00:18:46;11.80;97.40
3705;DHT22;1868;48.918;9.438;2023-04-24T00:21:18;11.80;97.40
3705;DHT22;1868;48.918;9.438;2023-04-24T00:23:48;11.80;97.40
3705;DHT22;1868;48.918;9.438;2023-04-24T00:26:22;11.80;97.40
3705;DHT22;1868;48.918;9.438;2023-04-24T00:28:52;11.90;97.40
3705;DHT22;1868;48.918;9.438;2023-04-24T00:31:23;11.90;97.40
3705;DHT22;1868;48.918;9.438;2023-04-24T00:33:57;11.90;97.40
3705;DHT22;1868;48.918;9.438;2023-04-24T00:36:29;12.00;97.40
3705;DHT22;1868;48.918;9.438;2023-04-24T00:39:00;12.00;97.40
3705;DHT22;1868;48.918;9.438;2023-04-24T00:41:30;12.00;97.40
3705;DHT22;1868;48.918;9.438;2023-04-24T00:43:59;12.00;97.40
3705;DHT22;1868;48.918;9.438;2023-04-24T00:46:32;12.00;97.40
3705;DHT22;1868;48.918;9.438;2023-04-24T00:49:05;12.10;97.40
3705;DHT22;1868;48.918;9.438;2023-04-24T00:51:34;12.10;97.40
3705;DHT22;1868;48.918;9.438;2023-04-24T00:54:03;12.10;97.40
3705;DHT22;1868;48.918;9.438;2023-04-24T00:56:34;12.10;97.40
3705;DHT22;1868;48.918;9.438;2023-04-24T00:59:05;12.10;97.40
3705;DHT22;1868;48.918;9.438;2023-04-24T01:01:38;12.10;97.40
3705;DHT22;1868;48.918;9.438;2023-04-24T01:04:09;12.10;97.40
3705;DHT22;1868;48.918;9.438;2023-04-24T01:06:41;12.10;97.40
3705;DHT22;1868;48.918;9.438;2023-04-24T01:09:13;12.10;97.40
3705;DHT22;1868;48.918;9.438;2023-04-24T01:11:43;12.10;97.40
3705;DHT22;1868;48.918;9.438;2023-04-24T01:14:15;12.10;97.40
3705;DHT22;1868;48.918;9.438;2023-04-24T01:16:45;12.10;97.40
3705;DHT22;1868;48.918;9.438;2023-04-24T01:19:17;12.20;97.40
3705;DHT22;1868;48.918;9.438;2023-04-24T01:21:49;12.20;97.40
3705;DHT22;1868;48.918;9.438;2023-04-24T01:24:29;12.10;97.40
3705;DHT22;1868;48.918;9.438;2023-04-24T01:26:58;12.10;97.40
3705;DHT22;1868;48.918;9.438;2023-04-24T01:29:32;12.20;97.40
3705;DHT22;1868;48.918;9.438;2023-04-24T01:32:03;12.20;97.40
3705;DHT22;1868;48.918;9.438;2023-04-24T01:34:34;12.20;97.40
3705;DHT22;1868;48.918;9.438;2023-04-24T01:37:19;12.10;97.40
3705;DHT22;1868;48.918;9.438;2023-04-24T01:39:50;12.20;97.40
3705;DHT22;1868;48.918;9.438;2023-04-24T01:42:20;12.10;97.40
3705;DHT22;1868;48.918;9.438;2023-04-24T01:44:49;12.10;97.40
3705;DHT22;1868;48.918;9.438;2023-04-24T01:47:19;12.20;97.40
3705;DHT22;1868;48.918;9.438;2023-04-24T01:49:50;12.10;97.40
3705;DHT22;1868;48.918;9.438;2023-04-24T01:52:25;12.10;97.40
3705;DHT22;1868;48.918;9.438;2023-04-24T01:55:04;12.10;97.40
3705;DHT22;1868;48.918;9.438;2023-04-24T01:57:34;12.10;97.40
3705;DHT22;1868;48.918;9.438;2023-04-24T02:00:05;12.00;97.40
3705;DHT22;1868;48.918;9.438;2023-04-24T02:02:42;12.00;97.40
3705;DHT22;1868;48.918;9.438;2023-04-24T02:05:14;12.00;97.40
3705;DHT22;1868;48.918;9.438;2023-04-24T02:07:45;12.00;97.40
3705;DHT22;1868;48.918;9.438;2023-04-24T02:10:15;11.90;97.40
3705;DHT22;1868;48.918;9.438;2023-04-24T02:12:45;11.90;97.40
3705;DHT22;1868;48.918;9.438;2023-04-24T02:15:14;11.90;97.40
3705;DHT22;1868;48.918;9.438;2023-04-24T02:17:47;11.80;97.40
3705;DHT22;1868;48.918;9.438;2023-04-24T02:20:17;11.80;97.40
3705;DHT22;1868;48.918;9.438;2023-04-24T02:22:46;11.80;97.40
3705;DHT22;1868;48.918;9.438;2023-04-24T02:25:17;11.70;97.40
3705;DHT22;1868;48.918;9.438;2023-04-24T02:27:49;11.70;97.40
3705;DHT22;1868;48.918;9.438;2023-04-24T02:30:20;11.70;97.40
3705;DHT22;1868;48.918;9.438;2023-04-24T02:32:50;11.70;97.40
3705;DHT22;1868;48.918;9.438;2023-04-24T02:35:19;11.70;97.40
3705;DHT22;1868;48.918;9.438;2023-04-24T02:37:50;11.70;97.40
3705;DHT22;1868;48.918;9.438;2023-04-24T02:40:21;11.70;97.40
3705;DHT22;1868;48.918;9.438;2023-04-24T02:42:52;11.70;97.40
3705;DHT22;1868;48.918;9.438;2023-04-24T02:45:24;11.70;97.40
3705;DHT22;1868;48.918;9.438;2023-04-24T02:47:53;11.70;97.40
3705;DHT22;1868;48.918;9.438;2023-04-24T02:50:23;11.70;97.40
3705;DHT22;1868;48.918;9.438;2023-04-24T02:52:53;11.80;97.40
3705;DHT22;1868;48.918;9.438;2023-04-24T02:55:24;11.80;97.40
3705;DHT22;1868;48.918;9.438;2023-04-24T02:57:57;11.90;97.40
3705;DHT22;1868;48.918;9.438;2023-04-24T03:00:27;11.90;97.40
3705;DHT22;1868;48.918;9.438;2023-04-24T03:02:56;11.90;97.40
3705;DHT22;1868;48.918;9.438;2023-04-24T03:05:26;11.90;97.40
3705;DHT22;1868;48.918;9.438;2023-04-24T03:07:58;11.90;97.40
3705;DHT22;1868;48.918;9.438;2023-04-24T03:10:31;11.90;97.40
3705;DHT22;1868;48.918;9.438;2023-04-24T03:13:03;11.80;97.40
3705;DHT22;1868;48.918;9.438;2023-04-24T03:15:34;11.70;97.40
3705;DHT22;1868;48.918;9.438;2023-04-24T03:18:06;11.70;97.40
3705;DHT22;1868;48.918;9.438;2023-04-24T03:20:37;11.70;97.40
3705;DHT22;1868;48.918;9.438;2023-04-24T03:23:10;11.70;97.40
3705;DHT22;1868;48.918;9.438;2023-04-24T03:25:41;11.70;97.40
3705;DHT22;1868;48.918;9.438;2023-04-24T03:28:12;11.70;97.40
3705;DHT22;1868;48.918;9.438;2023-04-24T03:30:48;11.70;97.40
3705;DHT22;1868;48.918;9.438;2023-04-24T03:33:18;11.70;97.40
3705;DHT22;1868;48.918;9.438;2023-04-24T03:35:56;11.70;97.40
3705;DHT22;1868;48.918;9.438;2023-04-24T03:38:36;11.60;97.40
3705;DHT22;1868;48.918;9.438;2023-04-24T03:41:37;11.60;97.40
3705;DHT22;1868;48.918;9.438;2023-04-24T03:44:11;11.50;97.40
3705;DHT22;1868;48.918;9.438;2023-04-24T03:46:40;11.50;97.40
3705;DHT22;1868;48.918;9.438;2023-04-24T03:49:09;11.40;97.40
3705;DHT22;1868;48.918;9.438;2023-04-24T03:51:42;11.40;97.40
3705;DHT22;1868;48.918;9.438;2023-04-24T03:54:20;11.40;97.40
3705;DHT22;1868;48.918;9.438;2023-04-24T03:56:55;11.40;97.40
3705;DHT22;1868;48.918;9.438;2023-04-24T03:59:28;11.40;97.40
3705;DHT22;1868;48.918;9.438;2023-04-24T04:02:11;11.40;97.40
3705;DHT22;1868;48.918;9.438;2023-04-24T04:04:41;11.40;97.40
3705;DHT22;1868;48.918;9.438;2023-04-24T04:07:12;11.40;97.40
3705;DHT22;1868;48.918;9.438;2023-04-24T04:09:46;11.40;97.40
3705;DHT22;1868;48.918;9.438;2023-04-24T04:12:27;11.40;97.40
3705;DHT22;1868;48.918;9.438;2023-04-24T04:14:58;11.40;97.40
3705;DHT22;1868;48.918;9.438;2023-04-24T04:17:28;11.40;97.40
3705;DHT22;1868;48.918;9.438;2023-04-24T04:19:59;11.40;97.40
3705;DHT22;1868;48.918;9.438;2023-04-24T04:22:45;11.40;97.40
3705;DHT22;1868;48.918;9.438;2023-04-24T04:25:21;11.30;97.40
3705;DHT22;1868;48.918;9.438;2023-04-24T04:27:58;11.40;97.40
3705;DHT22;1868;48.918;9.438;2023-04-24T04:30:28;11.40;97.40
3705;DHT22;1868;48.918;9.438;2023-04-24T04:33:03;11.40;97.40
3705;DHT22;1868;48.918;9.438;2023-04-24T04:35:34;11.40;97.40
3705;DHT22;1868;48.918;9.438;2023-04-24T04:38:04;11.50;97.40
3705;DHT22;1868;48.918;9.438;2023-04-24T04:40:46;11.50;97.40
3705;DHT22;1868;48.918;9.438;2023-04-24T04:43:21;11.50;97.40
3705;DHT22;1868;48.918;9.438;2023-04-24T04:45:53;11.40;97.40
3705;DHT22;1868;48.918;9.438;2023-04-24T04:48:43;11.30;97.40
3705;DHT22;1868;48.918;9.438;2023-04-24T04:51:12;11.10;97.40
3705;DHT22;1868;48.918;9.438;2023-04-24T04:53:42;10.90;97.40
3705;DHT22;1868;48.918;9.438;2023-04-24T04:56:24;10.70;97.40
3705;DHT22;1868;48.918;9.438;2023-04-24T04:58:56;10.50;97.40
3705;DHT22;1868;48.918;9.438;2023-04-24T05:01:26;10.40;97.40
3705;DHT22;1868;48.918;9.438;2023-04-24T05:03:59;10.30;97.40
3705;DHT22;1868;48.918;9.438;2023-04-24T05:06:29;10.20;97.40
3705;DHT22;1868;48.918;9.438;2023-04-24T05:09:01;10.20;97.40
3705;DHT22;1868;48.918;9.438;2023-04-24T05:11:44;10.10;97.40
3705;DHT22;1868;48.918;9.438;2023-04-24T05:14:17;10.10;97.40
3705;DHT22;1868;48.918;9.438;2023-04-24T05:16:46;10.20;97.40
3705;DHT22;1868;48.918;9.438;2023-04-24T05:19:19;10.20;97.40
3705;DHT22;1868;48.918;9.438;2023-04-24T05:21:51;10.20;97.40
3705;DHT22;1868;48.918;9.438;2023-04-24T05:24:24;10.20;97.40
3705;DHT22;1868;48.918;9.438;2023-04-24T05:27:08;10.20;97.40
3705;DHT22;1868;48.918;9.438;2023-04-24T05:29:42;10.20;97.40
3705;DHT22;1868;48.918;9.438;2023-04-24T05:32:13;10.30;97.40
3705;DHT22;1868;48.918;9.438;2023-04-24T05:34:42;10.30;97.40
3705;DHT22;1868;48.918;9.438;2023-04-24T05:37:12;10.30;97.40
3705;DHT22;1868;48.918;9.438;2023-04-24T05:39:43;10.40;97.40
3705;DHT22;1868;48.918;9.438;2023-04-24T05:42:15;10.30;97.40
3705;DHT22;1868;48.918;9.438;2023-04-24T05:44:46;10.40;97.40
3705;DHT22;1868;48.918;9.438;2023-04-24T05:47:19;10.40;97.40
3705;DHT22;1868;48.918;9.438;2023-04-24T05:49:51;10.50;97.40
3705;DHT22;1868;48.918;9.438;2023-04-24T05:52:21;10.50;97.40
3705;DHT22;1868;48.918;9.438;2023-04-24T05:54:53;10.60;97.40
3705;DHT22;1868;48.918;9.438;2023-04-24T05:57:28;10.60;97.40
3705;DHT22;1868;48.918;9.438;2023-04-24T06:00:06;10.60;97.40
3705;DHT22;1868;48.918;9.438;2023-04-24T06:02:50;10.60;97.40
3705;DHT22;1868;48.918;9.438;2023-04-24T06:05:21;10.70;97.40
3705;DHT22;1868;48.918;9.438;2023-04-24T06:07:52;10.80;97.40
3705;DHT22;1868;48.918;9.438;2023-04-24T06:10:26;10.80;97.40
3705;DHT22;1868;48.918;9.438;2023-04-24T06:12:56;10.80;97.40
3705;DHT22;1868;48.918;9.438;2023-04-24T06:15:33;10.90;97.40
3705;DHT22;1868;48.918;9.438;2023-04-24T06:18:07;11.00;97.40
3705;DHT22;1868;48.918;9.438;2023-04-24T06:20:43;11.00;97.40
3705;DHT22;1868;48.918;9.438;2023-04-24T06:23:12;11.00;97.40
3705;DHT22;1868;48.918;9.438;2023-04-24T06:25:41;10.90;97.40
3705;DHT22;1868;48.918;9.438;2023-04-24T06:28:12;11.00;97.40
3705;DHT22;1868;48.918;9.438;2023-04-24T06:30:48;10.90;97.40
3705;DHT22;1868;48.918;9.438;2023-04-24T06:33:17;10.90;97.40
3705;DHT22;1868;48.918;9.438;2023-04-24T06:35:50;10.90;97.40
3705;DHT22;1868;48.918;9.438;2023-04-24T06:38:19;10.90;97.40
3705;DHT22;1868;48.918;9.438;2023-04-24T06:40:52;10.90;97.40
3705;DHT22;1868;48.918;9.438;2023-04-24T06:43:25;11.10;97.40
3705;DHT22;1868;48.918;9.438;2023-04-24T06:45:57;11.40;97.40
3705;DHT22;1868;48.918;9.438;2023-04-24T06:48:26;11.80;97.40
3705;DHT22;1868;48.918;9.438;2023-04-24T06:50:57;12.10;97.40
3705;DHT22;1868;48.918;9.438;2023-04-24T06:53:30;12.30;97.40
3705;DHT22;1868;48.918;9.438;2023-04-24T06:55:59;12.40;97.40
3705;DHT22;1868;48.918;9.438;2023-04-24T06:58:32;12.60;97.40
3705;DHT22;1868;48.918;9.438;2023-04-24T07:01:04;12.70;97.40
3705;DHT22;1868;48.918;9.438;2023-04-24T07:03:34;12.80;97.40
3705;DHT22;1868;48.918;9.438;2023-04-24T07:06:05;12.80;97.40
3705;DHT22;1868;48.918;9.438;2023-04-24T07:08:35;12.80;97.40
3705;DHT22;1868;48.918;9.438;2023-04-24T07:11:04;12.80;97.40
3705;DHT22;1868;48.918;9.438;2023-04-24T07:13:33;12.90;97.40
3705;DHT22;1868;48.918;9.438;2023-04-24T07:16:07;12.90;97.40
3705;DHT22;1868;48.918;9.438;2023-04-24T07:18:40;13.00;97.40
3705;DHT22;1868;48.918;9.438;2023-04-24T07:21:10;13.20;97.40
3705;DHT22;1868;48.918;9.438;2023-04-24T07:23:40;13.20;97.40
3705;DHT22;1868;48.918;9.438;2023-04-24T07:26:15;13.30;97.40
3705;DHT22;1868;48.918;9.438;2023-04-24T07:28:44;13.50;97.40
3705;DHT22;1868;48.918;9.438;2023-04-24T07:31:15;13.70;97.40
3705;DHT22;1868;48.918;9.438;2023-04-24T07:33:43;13.80;97.40
3705;DHT22;1868;48.918;9.438;2023-04-24T07:36:12;13.70;97.40
3705;DHT22;1868;48.918;9.438;2023-04-24T07:38:43;13.50;97.40
3705;DHT22;1868;48.918;9.438;2023-04-24T07:41:12;13.40;97.40
3705;DHT22;1868;48.918;9.438;2023-04-24T07:43:42;13.20;97.40
3705;DHT22;1868;48.918;9.438;2023-04-24T07:46:17;13.10;97.40
3705;DHT22;1868;48.918;9.438;2023-04-24T07:48:46;13.00;97.40
3705;DHT22;1868;48.918;9.438;2023-04-24T07:51:32;13.00;97.40
3705;DHT22;1868;48.918;9.438;2023-04-24T07:54:05;13.10;97.40
3705;DHT22;1868;48.918;9.438;2023-04-24T07:56:35;13.30;97.40
3705;DHT22;1868;48.918;9.438;2023-04-24T07:59:07;13.90;97.40
3705;DHT22;1868;48.918;9.438;2023-04-24T08:01:42;14.40;97.40
3705;DHT22;1868;48.918;9.438;2023-04-24T08:04:11;15.00;97.40
3705;DHT22;1868;48.918;9.438;2023-04-24T08:06:40;15.40;97.40
3705;DHT22;1868;48.918;9.438;2023-04-24T08:09:10;15.50;97.40
3705;DHT22;1868;48.918;9.438;2023-04-24T08:11:39;15.30;97.40
3705;DHT22;1868;48.918;9.438;2023-04-24T08:14:08;15.10;97.40
3705;DHT22;1868;48.918;9.438;2023-04-24T08:16:43;14.80;97.40
3705;DHT22;1868;48.918;9.438;2023-04-24T08:19:14;15.20;97.40
3705;DHT22;1868;48.918;9.438;2023-04-24T08:21:43;14.90;97.40
3705;DHT22;1868;48.918;9.438;2023-04-24T08:24:12;14.70;97.40
3705;DHT22;1868;48.918;9.438;2023-04-24T08:26:41;14.40;97.40
3705;DHT22;1868;48.918;9.438;2023-04-24T08:29:13;14.50;97.40
3705;DHT22;1868;48.918;9.438;2023-04-24T08:31:45;14.70;97.40
3705;DHT22;1868;48.918;9.438;2023-04-24T08:34:14;14.60;97.40
3705;DHT22;1868;48.918;9.438;2023-04-24T08:36:43;14.40;97.40
3705;DHT22;1868;48.918;9.438;2023-04-24T08:39:14;14.40;97.40
3705;DHT22;1868;48.918;9.438;2023-04-24T08:41:44;15.70;97.20
3705;DHT22;1868;48.918;9.438;2023-04-24T08:44:13;16.60;91.80
3705;DHT22;1868;48.918;9.438;2023-04-24T08:46:46;17.40;87.30
3705;DHT22;1868;48.918;9.438;2023-04-24T08:49:17;17.90;84.90
3705;DHT22;1868;48.918;9.438;2023-04-24T08:51:49;18.60;78.70
3705;DHT22;1868;48.918;9.438;2023-04-24T08:54:19;19.40;73.50
3705;DHT22;1868;48.918;9.438;2023-04-24T08:56:48;19.90;70.40
3705;DHT22;1868;48.918;9.438;2023-04-24T08:59:19;20.30;67.40
3705;DHT22;1868;48.918;9.438;2023-04-24T09:01:51;19.60;71.10
3705;DHT22;1868;48.918;9.438;2023-04-24T09:04:22;19.90;71.50
3705;DHT22;1868;48.918;9.438;2023-04-24T09:06:55;19.70;69.10
3705;DHT22;1868;48.918;9.438;2023-04-24T09:09:25;19.10;71.70
3705;DHT22;1868;48.918;9.438;2023-04-24T09:11:54;18.70;70.40
3705;DHT22;1868;48.918;9.438;2023-04-24T09:14:24;17.90;71.70
3705;DHT22;1868;48.918;9.438;2023-04-24T09:17:00;17.50;74.80
3705;DHT22;1868;48.918;9.438;2023-04-24T09:19:30;17.00;77.10
3705;DHT22;1868;48.918;9.438;2023-04-24T09:21:59;16.70;78.60
3705;DHT22;1868;48.918;9.438;2023-04-24T09:24:34;16.30;80.40
3705;DHT22;1868;48.918;9.438;2023-04-24T09:27:04;16.00;82.10
3705;DHT22;1868;48.918;9.438;2023-04-24T09:29:33;15.80;83.40
3705;DHT22;1868;48.918;9.438;2023-04-24T09:32:21;15.50;81.50
3705;DHT22;1868;48.918;9.438;2023-04-24T09:35:10;15.30;83.20
3705;DHT22;1868;48.918;9.438;2023-04-24T09:37:42;15.40;82.80
3705;DHT22;1868;48.918;9.438;2023-04-24T09:40:16;15.20;84.30
3705;DHT22;1868;48.918;9.438;2023-04-24T09:42:52;15.00;84.90
3705;DHT22;1868;48.918;9.438;2023-04-24T09:45:24;14.70;87.30
3705;DHT22;1868;48.918;9.438;2023-04-24T09:47:57;14.60;89.20
3705;DHT22;1868;48.918;9.438;2023-04-24T09:50:30;14.50;90.10
3705;DHT22;1868;48.918;9.438;2023-04-24T09:53:02;14.40;90.50
3705;DHT22;1868;48.918;9.438;2023-04-24T09:55:32;14.30;91.00
3705;DHT22;1868;48.918;9.438;2023-04-24T09:58:02;14.30;90.60
3705;DHT22;1868;48.918;9.438;2023-04-24T10:00:33;14.40;91.00
3705;DHT22;1868;48.918;9.438;2023-04-24T10:03:07;14.40;90.40
3705;DHT22;1868;48.918;9.438;2023-04-24T10:05:39;14.60;89.70
3705;DHT22;1868;48.918;9.438;2023-04-24T10:08:11;14.90;90.10
3705;DHT22;1868;48.918;9.438;2023-04-24T10:10:41;15.10;88.80
3705;DHT22;1868;48.918;9.438;2023-04-24T10:13:14;15.10;88.60
3705;DHT22;1868;48.918;9.438;2023-04-24T10:15:46;14.80;89.20
3705;DHT22;1868;48.918;9.438;2023-04-24T10:18:20;14.70;89.40
3705;DHT22;1868;48.918;9.438;2023-04-24T10:20:51;14.40;90.20
3705;DHT22;1868;48.918;9.438;2023-04-24T10:23:25;14.20;91.40
3705;DHT22;1868;48.918;9.438;2023-04-24T10:25:56;14.00;92.20
3705;DHT22;1868;48.918;9.438;2023-04-24T10:28:27;13.90;92.40
3705;DHT22;1868;48.918;9.438;2023-04-24T10:31:00;13.80;92.60
3705;DHT22;1868;48.918;9.438;2023-04-24T10:33:31;13.90;91.70
3705;DHT22;1868;48.918;9.438;2023-04-24T10:36:01;13.80;91.80
3705;DHT22;1868;48.918;9.438;2023-04-24T10:38:31;13.70;91.60
3705;DHT22;1868;48.918;9.438;2023-04-24T10:41:08;13.60;91.90
3705;DHT22;1868;48.918;9.438;2023-04-24T10:43:43;13.50;91.70
3705;DHT22;1868;48.918;9.438;2023-04-24T10:46:19;13.50;91.00
3705;DHT22;1868;48.918;9.438;2023-04-24T10:48:54;13.40;91.20
3705;DHT22;1868;48.918;9.438;2023-04-24T10:51:24;13.30;92.30
3705;DHT22;1868;48.918;9.438;2023-04-24T10:53:57;13.30;92.70
3705;DHT22;1868;48.918;9.438;2023-04-24T10:56:27;13.30;93.50
3705;DHT22;1868;48.918;9.438;2023-04-24T10:58:58;13.40;94.70
3705;DHT22;1868;48.918;9.438;2023-04-24T11:01:30;13.30;93.80
3705;DHT22;1868;48.918;9.438;2023-04-24T11:04:03;13.30;94.00
3705;DHT22;1868;48.918;9.438;2023-04-24T11:06:37;13.20;94.60
3705;DHT22;1868;48.918;9.438;2023-04-24T11:09:07;13.10;93.70
3705;DHT22;1868;48.918;9.438;2023-04-24T11:11:45;13.10;93.30
3705;DHT22;1868;48.918;9.438;2023-04-24T11:14:16;13.10;93.90
3705;DHT22;1868;48.918;9.438;2023-04-24T11:16:51;13.20;94.30
3705;DHT22;1868;48.918;9.438;2023-04-24T11:19:23;13.40;93.20
3705;DHT22;1868;48.918;9.438;2023-04-24T11:21:58;13.70;93.10
3705;DHT22;1868;48.918;9.438;2023-04-24T11:24:37;14.00;92.00
3705;DHT22;1868;48.918;9.438;2023-04-24T11:27:17;14.70;91.40
3705;DHT22;1868;48.918;9.438;2023-04-24T11:29:59;15.50;85.30
3705;DHT22;1868;48.918;9.438;2023-04-24T11:32:35;15.90;84.00
3705;DHT22;1868;48.918;9.438;2023-04-24T11:35:13;15.70;84.10
3705;DHT22;1868;48.918;9.438;2023-04-24T11:37:45;15.30;85.30
3705;DHT22;1868;48.918;9.438;2023-04-24T11:40:23;15.10;85.50
3705;DHT22;1868;48.918;9.438;2023-04-24T11:42:55;15.00;85.50
3705;DHT22;1868;48.918;9.438;2023-04-24T11:45:25;15.00;84.10
3705;DHT22;1868;48.918;9.438;2023-04-24T11:47:58;14.90;85.30
3705;DHT22;1868;48.918;9.438;2023-04-24T11:50:31;14.70;84.70
3705;DHT22;1868;48.918;9.438;2023-04-24T11:53:01;14.60;88.20
3705;DHT22;1868;48.918;9.438;2023-04-24T11:55:30;14.50;85.60
3705;DHT22;1868;48.918;9.438;2023-04-24T11:57:59;14.50;87.30
3705;DHT22;1868;48.918;9.438;2023-04-24T12:00:30;14.40;89.70
3705;DHT22;1868;48.918;9.438;2023-04-24T12:03:06;14.40;88.60
3705;DHT22;1868;48.918;9.438;2023-04-24T12:05:38;14.40;88.80
3705;DHT22;1868;48.918;9.438;2023-04-24T12:08:08;14.30;88.40
3705;DHT22;1868;48.918;9.438;2023-04-24T12:10:37;14.30;89.60
3705;DHT22;1868;48.918;9.438;2023-04-24T12:13:09;14.10;90.20
3705;DHT22;1868;48.918;9.438;2023-04-24T12:15:40;14.00;91.30
3705;DHT22;1868;48.918;9.438;2023-04-24T12:18:12;14.00;91.80
3705;DHT22;1868;48.918;9.438;2023-04-24T12:20:42;14.00;90.90
3705;DHT22;1868;48.918;9.438;2023-04-24T12:23:13;14.20;89.60
3705;DHT22;1868;48.918;9.438;2023-04-24T12:25:43;14.20;88.80
3705;DHT22;1868;48.918;9.438;2023-04-24T12:28:14;14.20;90.10
3705;DHT22;1868;48.918;9.438;2023-04-24T12:30:47;14.20;90.30
3705;DHT22;1868;48.918;9.438;2023-04-24T12:33:18;14.10;89.60
3705;DHT22;1868;48.918;9.438;2023-04-24T12:35:53;14.10;90.60
3705;DHT22;1868;48.918;9.438;2023-04-24T12:38:24;14.20;90.30
3705;DHT22;1868;48.918;9.438;2023-04-24T12:41:02;14.30;90.50
3705;DHT22;1868;48.918;9.438;2023-04-24T12:43:35;14.30;90.60
3705;DHT22;1868;48.918;9.438;2023-04-24T12:46:06;14.30;91.40
3705;DHT22;1868;48.918;9.438;2023-04-24T12:48:35;14.30;90.60
3705;DHT22;1868;48.918;9.438;2023-04-24T12:51:06;14.20;90.10
3705;DHT22;1868;48.918;9.438;2023-04-24T12:53:35;13.90;92.00
3705;DHT22;1868;48.918;9.438;2023-04-24T12:56:05;13.80;95.00
3705;DHT22;1868;48.918;9.438;2023-04-24T12:58:37;13.60;94.80
3705;DHT22;1868;48.918;9.438;2023-04-24T13:01:06;13.40;93.90
3705;DHT22;1868;48.918;9.438;2023-04-24T13:03:38;13.30;93.60
3705;DHT22;1868;48.918;9.438;2023-04-24T13:06:09;13.20;94.20
3705;DHT22;1868;48.918;9.438;2023-04-24T13:08:38;13.10;95.20
3705;DHT22;1868;48.918;9.438;2023-04-24T13:11:07;13.10;95.50
3705;DHT22;1868;48.918;9.438;2023-04-24T13:13:35;13.30;95.80
3705;DHT22;1868;48.918;9.438;2023-04-24T13:16:05;13.40;96.20
3705;DHT22;1868;48.918;9.438;2023-04-24T13:18:34;13.50;96.70
3705;DHT22;1868;48.918;9.438;2023-04-24T13:21:12;13.60;95.70
3705;DHT22;1868;48.918;9.438;2023-04-24T13:23:43;13.60;96.70
3705;DHT22;1868;48.918;9.438;2023-04-24T13:26:14;13.70;96.40
3705;DHT22;1868;48.918;9.438;2023-04-24T13:28:44;13.70;96.60
3705;DHT22;1868;48.918;9.438;2023-04-24T13:31:13;13.80;97.40
3705;DHT22;1868;48.918;9.438;2023-04-24T13:33:43;15.00;96.30
3705;DHT22;1868;48.918;9.438;2023-04-24T13:36:13;16.20;93.80
3705;DHT22;1868;48.918;9.438;2023-04-24T13:38:44;17.30;91.70
3705;DHT22;1868;48.918;9.438;2023-04-24T13:41:13;17.30;86.60
3705;DHT22;1868;48.918;9.438;2023-04-24T13:43:42;16.90;84.10
3705;DHT22;1868;48.918;9.438;2023-04-24T13:46:11;16.50;87.10
3705;DHT22;1868;48.918;9.438;2023-04-24T13:48:41;16.30;89.60
3705;DHT22;1868;48.918;9.438;2023-04-24T13:51:13;16.10;91.60
3705;DHT22;1868;48.918;9.438;2023-04-24T13:53:46;16.30;89.00
3705;DHT22;1868;48.918;9.438;2023-04-24T13:56:16;17.00;85.60
3705;DHT22;1868;48.918;9.438;2023-04-24T13:58:45;16.90;85.10
3705;DHT22;1868;48.918;9.438;2023-04-24T14:01:15;16.50;83.80
3705;DHT22;1868;48.918;9.438;2023-04-24T14:03:45;16.20;85.80
3705;DHT22;1868;48.918;9.438;2023-04-24T14:06:15;15.90;86.80
3705;DHT22;1868;48.918;9.438;2023-04-24T14:08:44;15.70;87.70
3705;DHT22;1868;48.918;9.438;2023-04-24T14:11:14;15.30;89.00
3705;DHT22;1868;48.918;9.438;2023-04-24T14:13:45;15.10;90.70
3705;DHT22;1868;48.918;9.438;2023-04-24T14:16:14;14.90;90.90
3705;DHT22;1868;48.918;9.438;2023-04-24T14:18:44;15.00;91.50
3705;DHT22;1868;48.918;9.438;2023-04-24T14:21:16;14.90;91.10
3705;DHT22;1868;48.918;9.438;2023-04-24T14:23:45;14.60;91.30
3705;DHT22;1868;48.918;9.438;2023-04-24T14:26:14;14.50;91.60
3705;DHT22;1868;48.918;9.438;2023-04-24T14:28:43;14.40;91.60
3705;DHT22;1868;48.918;9.438;2023-04-24T14:31:12;14.50;91.30
3705;DHT22;1868;48.918;9.438;2023-04-24T14:33:41;14.50;91.00
3705;DHT22;1868;48.918;9.438;2023-04-24T14:36:10;14.70;91.10
3705;DHT22;1868;48.918;9.438;2023-04-24T14:38:40;14.70;91.40
3705;DHT22;1868;48.918;9.438;2023-04-24T14:41:10;14.80;91.70
3705;DHT22;1868;48.918;9.438;2023-04-24T14:43:40;14.70;92.30
3705;DHT22;1868;48.918;9.438;2023-04-24T14:46:10;14.70;92.30
3705;DHT22;1868;48.918;9.438;2023-04-24T14:48:39;14.60;91.50
3705;DHT22;1868;48.918;9.438;2023-04-24T14:51:09;14.50;90.80
3705;DHT22;1868;48.918;9.438;2023-04-24T14:53:41;14.40;92.30
3705;DHT22;1868;48.918;9.438;2023-04-24T14:56:10;14.40;92.90
3705;DHT22;1868;48.918;9.438;2023-04-24T14:58:40;14.50;93.50
3705;DHT22;1868;48.918;9.438;2023-04-24T15:01:09;14.50;92.30
3705;DHT22;1868;48.918;9.438;2023-04-24T15:03:39;14.50;91.90
3705;DHT22;1868;48.918;9.438;2023-04-24T15:06:08;14.50;91.70
3705;DHT22;1868;48.918;9.438;2023-04-24T15:08:41;14.70;91.40
3705;DHT22;1868;48.918;9.438;2023-04-24T15:11:15;14.70;90.60
3705;DHT22;1868;48.918;9.438;2023-04-24T15:13:45;14.80;90.60
3705;DHT22;1868;48.918;9.438;2023-04-24T15:16:14;14.90;89.40
3705;DHT22;1868;48.918;9.438;2023-04-24T15:18:45;15.20;89.00
3705;DHT22;1868;48.918;9.438;2023-04-24T15:21:15;15.20;88.20
3705;DHT22;1868;48.918;9.438;2023-04-24T15:23:45;15.20;89.40
3705;DHT22;1868;48.918;9.438;2023-04-24T15:26:14;15.20;86.80
3705;DHT22;1868;48.918;9.438;2023-04-24T15:28:46;15.30;87.30
3705;DHT22;1868;48.918;9.438;2023-04-24T15:31:14;15.20;86.90
3705;DHT22;1868;48.918;9.438;2023-04-24T15:33:44;15.30;88.20
3705;DHT22;1868;48.918;9.438;2023-04-24T15:36:12;15.30;84.50
3705;DHT22;1868;48.918;9.438;2023-04-24T15:38:43;15.20;83.20
3705;DHT22;1868;48.918;9.438;2023-04-24T15:41:13;15.10;84.10
3705;DHT22;1868;48.918;9.438;2023-04-24T15:43:43;14.80;84.70
3705;DHT22;1868;48.918;9.438;2023-04-24T15:46:12;14.70;84.70
3705;DHT22;1868;48.918;9.438;2023-04-24T15:48:42;14.70;85.10
3705;DHT22;1868;48.918;9.438;2023-04-24T15:51:12;14.70;85.80
3705;DHT22;1868;48.918;9.438;2023-04-24T15:53:46;14.70;87.10
3705;DHT22;1868;48.918;9.438;2023-04-24T15:56:15;14.60;88.20
3705;DHT22;1868;48.918;9.438;2023-04-24T15:58:46;14.60;89.40
3705;DHT22;1868;48.918;9.438;2023-04-24T16:01:16;14.60;89.90
3705;DHT22;1868;48.918;9.438;2023-04-24T16:03:47;14.70;89.40
3705;DHT22;1868;48.918;9.438;2023-04-24T16:06:16;14.70;88.60
3705;DHT22;1868;48.918;9.438;2023-04-24T16:08:46;14.50;88.40
3705;DHT22;1868;48.918;9.438;2023-04-24T16:11:16;14.50;87.10
3705;DHT22;1868;48.918;9.438;2023-04-24T16:13:45;14.40;86.90
3705;DHT22;1868;48.918;9.438;2023-04-24T16:16:14;14.30;86.90
3705;DHT22;1868;48.918;9.438;2023-04-24T16:18:43;14.30;88.20
3705;DHT22;1868;48.918;9.438;2023-04-24T16:21:13;14.20;90.60
3705;DHT22;1868;48.918;9.438;2023-04-24T16:23:49;13.90;91.00
3705;DHT22;1868;48.918;9.438;2023-04-24T16:26:23;13.60;92.20
3705;DHT22;1868;48.918;9.438;2023-04-24T16:28:53;13.40;92.50
3705;DHT22;1868;48.918;9.438;2023-04-24T16:31:23;13.30;93.30